Stunt Ranch Reserve, Santa Monica Mtns, California Weather observations

Data are for 10 minute period ending at time listed.
 Day   Time   Solar   Ave.   Ave.  Ave.  Vector  Max.   Baro.   Total    
  of    of     Rad.   Air    Rel.  Wind   Wind   Wind  Press.  Precip.   
Year   Day            Temp.  Hum.  Speed  Dir.   Gust                    
2018   (PST)  Kw/m2    F      %     mph   deg.    mph    mb.     in.     
-------------------------------------------------------------------------
  52   14:10   0.62   56.0    30    5.7   252    13.9   974.0    0.00 
  52   14:20   0.46   54.2    30    6.7   220    11.9   974.0    0.00 
  52   14:30   0.57   54.7    29    6.0   222    12.1   974.0    0.00 
  52   14:40   0.54   55.5    29    2.8   286     8.6   973.0    0.00 
  52   14:50   0.52   57.2    28    2.6   264     9.6   973.0    0.00 
  52   15:00   0.49   55.5    30    4.1   233    10.6   973.0    0.00 
  52   15:10   0.46   55.3    30    5.7   239    12.6   973.0    0.00 
  52   15:20   0.43   55.0    30    5.5   248    12.2   973.0    0.00 
  52   15:30   0.41   55.0    28    5.4   240    11.6   973.0    0.00 
  52   15:40   0.37   54.7    27    5.1   227    11.1   973.0    0.00 
  52   15:50   0.34   54.7    26    3.1   234     8.1   974.0    0.00 
  52   16:00   0.31   54.4    26    2.8   252    11.0   973.0    0.00 
  52   16:10   0.28   54.9    25    2.5   287    10.8   973.0    0.00 
  52   16:20   0.24   54.5    24    2.3   277     8.6   973.0    0.00 
  52   16:30   0.21   54.2    24    2.9   254     7.9   974.0    0.00 
  52   16:40   0.18   53.7    24    2.8   236     9.4   974.0    0.00 
  52   16:50   0.15   53.2    26    1.6   275     5.2   974.0    0.00 
  52   17:00   0.10   51.5    28    2.9   262     8.0   974.0    0.00 
  52   17:10   0.03   51.1    29    5.6   266     9.7   974.0    0.00 
  52   17:20   0.02   50.3    31    4.5   268     9.8   974.0    0.00 
  52   17:30   0.01   49.6    32    5.0   272    10.0   974.0    0.00 
  52   17:40   0.01   49.0    34    3.0   276    10.6   974.0    0.00 
  52   17:50   0.00   47.6    36    0.5   294     4.8   974.0    0.00 
  52   18:00   0.00   46.5    38    0.9   256     3.1   974.0    0.00 
  52   18:10   0.00   45.6    40    1.3   278     6.1   974.0    0.00 
  52   18:20   0.00   45.0    42    1.2   278     4.4   974.0    0.00 
  52   18:30   0.00   45.2    42    1.9   240     3.9   974.0    0.00 
  52   18:40   0.00   45.3    43    2.5   242     3.9   974.0    0.00 
  52   18:50   0.00   44.6    47    2.6   269     7.2   975.0    0.00 
  52   19:00   0.00   44.0    50    0.4   281     2.0   974.0    0.00 
  52   19:10   0.00   43.3    53    0.9   247     2.8   974.0    0.00 
  52   19:20   0.00   43.2    54    1.2   247     4.5   975.0    0.00 
  52   19:30   0.00   43.7    55    1.5   226     3.4   975.0    0.00 
  52   19:40   0.00   44.3    56    2.3   223     4.1   975.0    0.00 
  52   19:50   0.00   43.8    57    3.4   203     4.7   975.0    0.00 
  52   20:00   0.00   43.7    58    3.5   208     5.6   975.0    0.00 
  52   20:10   0.00   43.6    59    4.2   216     6.0   975.0    0.00 
  52   20:20   0.00   43.7    60    4.1   207     5.7   975.0    0.00 
  52   20:30   0.00   43.9    62    3.4   213     5.5   975.0    0.00 
  52   20:40   0.00   43.9    63    3.9   214     6.2   975.0    0.00 
  52   20:50   0.00   44.2    62    3.0   214     4.2   975.0    0.00 
  52   21:00   0.00   43.6    63    2.8   208     4.5   975.0    0.00 
  52   21:10   0.00   43.9    63    3.1   194     5.3   975.0    0.00 
  52   21:20   0.00   44.2    64    3.0   214     4.7   975.0    0.00 
  52   21:30   0.00   44.5    66    3.2   219     5.0   975.0    0.00 
  52   21:40   0.00   43.8    67    3.2   202     4.7   975.0    0.00 
  52   21:50   0.00   43.2    68    3.0   185     4.6   975.0    0.00 
  52   22:00   0.00   43.4    69    2.1   193     4.2   975.0    0.00 
  52   22:10   0.00   43.9    69    2.8   200     5.3   975.0    0.00 
  52   22:20   0.00   44.2    68    2.7   184     5.6   975.0    0.00 
  52   22:30   0.00   43.9    71    3.0   199     4.9   975.0    0.00 
  52   22:40   0.00   44.0    73    1.5   194     3.4   975.0    0.00 
  52   22:50   0.00   43.5    74    2.8   190     4.5   975.0    0.00 
  52   23:00   0.00   43.2    76    2.6   197     4.5   975.0    0.00 
  52   23:10   0.00   43.2    76    1.8   228     3.0   975.0    0.00 
  52   23:20   0.00   42.5    77    1.0   248     2.4   975.0    0.00 
  52   23:30   0.00   42.2    78    0.1   348     0.9   975.0    0.00 
  52   23:40   0.00   42.6    78    0.8   205     4.3   975.0    0.00 
  52   23:50   0.00   42.6    77    3.1   196     4.9   975.0    0.00 
  53    0:00   0.00   42.5    77    3.3   195     4.7   975.0    0.00 
  53    0:10   0.00   42.3    76    4.3   198     6.4   975.0    0.00 
  53    0:20   0.00   41.6    75    1.6   224     5.6   975.0    0.00 
  53    0:30   0.00   41.1    76    1.9   189     4.6   975.0    0.00 
  53    0:40   0.00   42.0    70    4.0   192     6.6   976.0    0.00 
  53    0:50   0.00   42.0    67    1.5   188     3.9   976.0    0.00 
  53    1:00   0.00   41.6    66    3.5   184     5.7   976.0    0.00 
  53    1:10   0.00   41.4    66    1.2   328     2.7   976.0    0.00 
  53    1:20   0.00   41.5    67    1.4   172     3.9   976.0    0.00 
  53    1:30   0.00   41.5    64    2.7   200     5.3   976.0    0.00 
  53    1:40   0.00   41.2    64    0.9   144     2.2   976.0    0.00 
  53    1:50   0.00   42.0    63    0.9   196     3.1   976.0    0.00 
  53    2:00   0.00   42.0    62    1.3   229     3.9   975.0    0.00 
  53    2:10   0.00   40.8    66    1.0    15     2.2   975.0    0.00 
  53    2:20   0.00   40.4    66    1.3   186     3.1   975.0    0.00 
  53    2:30   0.00   40.2    68    1.4   118     2.4   975.0    0.00 
  53    2:40   0.00   40.8    70    0.8   102     1.8   975.0    0.00 
  53    2:50   0.00   40.6    70    0.8   285     2.2   975.0    0.00 
  53    3:00   0.00   40.0    71    0.9   274     2.5   975.0    0.00 
  53    3:10   0.00   40.2    72    0.5   355     1.5   975.0    0.00 
  53    3:20   0.00   39.8    74    0.7   253     2.4   975.0    0.00 
  53    3:30   0.00   40.2    73    0.3   175     1.8   975.0    0.00 
  53    3:40   0.00   40.7    73    0.4   159     2.3   976.0    0.00 
  53    3:50   0.00   40.6    76    1.2   148     3.1   976.0    0.00 
  53    4:00   0.00   40.6    77    1.8   131     3.9   976.0    0.00 
  53    4:10   0.00   40.5    77    1.8    98     4.2   976.0    0.00 
  53    4:20   0.00   39.7    77    1.0    89     2.8   976.0    0.00 
  53    4:30   0.00   39.8    75    0.7    66     1.6   976.0    0.00 
  53    4:40   0.00   39.7    76    0.1   318     0.9   975.0    0.00 
  53    4:50   0.00   39.6    75    1.0   274     2.6   975.0    0.00 
  53    5:00   0.00   38.8    78    0.3   277     2.1   975.0    0.00 
  53    5:10   0.00   39.1    79    0.2   106     1.1   976.0    0.00 
  53    5:20   0.00   38.4    80    0.8   315     2.6   976.0    0.00 
  53    5:30   0.00   37.3    82    1.3   277     2.6   976.0    0.00 
  53    5:40   0.00   37.2    85    0.4   146     1.4   976.0    0.00 
  53    5:50   0.00   37.9    85    0.7   151     2.2   976.0    0.00 
  53    6:00   0.00   38.2    86    1.6   152     2.6   976.0    0.00 
  53    6:10   0.00   39.4    88    1.1   125     2.3   976.0    0.00 
  53    6:20   0.00   40.5    85    1.3   143     2.9   976.0    0.00 
  53    6:30   0.00   39.8    84    0.1   316     0.9   976.0    0.00 
  53    6:40   0.01   38.8    85    0.0     0     0.0   976.0    0.00 
  53    6:50   0.01   38.8    87    0.1   220     0.8   976.0    0.00 
  53    7:00   0.02   38.9    87    0.6   271     1.5   976.0    0.00 
  53    7:10   0.02   38.6    86    0.5   278     1.4   976.0    0.00 
  53    7:20   0.03   38.4    84    0.2   268     0.8   976.0    0.00 
  53    7:30   0.04   39.0    84    0.0   344     0.6   977.0    0.00 
  53    7:40   0.10   39.5    82    0.1   282     0.9   977.0    0.00 
  53    7:50   0.10   41.2    75    0.2   290     0.9   977.0    0.00 
  53    8:00   0.16   42.4    69    0.2   279     1.0   977.0    0.00 
  53    8:10   0.27   44.6    68    0.5    84     2.2   977.0    0.00 
  53    8:20   0.25   45.2    68    1.0    82     2.0   977.0    0.00 
  53    8:30   0.30   45.9    64    1.7   277     2.6   978.0    0.00 
  53    8:40   0.32   48.0    58    1.4   291     1.8   978.0    0.00 
  53    8:50   0.19   47.6    55    0.5   315     1.5   978.0    0.00 
  53    9:00   0.07   46.5    59    0.4   286     1.8   978.0    0.00 
  53    9:10   0.07   45.6    61    0.6   281     1.8   978.0    0.00 
  53    9:20   0.08   44.8    65    1.2   149     1.8   978.0    0.00 
  53    9:30   0.10   45.3    66    0.2   135     1.6   978.0    0.00 
  53    9:40   0.45   47.9    64    2.0    84     3.6   978.0    0.00 
  53    9:50   0.32   49.9    62    1.6     8     3.1   978.0    0.00 
  53   10:00   0.12   49.1    63    1.1   315     2.0   978.0    0.00 
  53   10:10   0.12   48.8    63    0.7   247     1.5   978.0    0.00 
  53   10:20   0.09   48.7    64    0.8   100     1.9   978.0    0.00 
  53   10:30   0.07   48.1    66    1.4   143     2.3   978.0    0.00 
  53   10:40   0.20   48.3    66    1.6   134     2.4   978.0    0.00 
  53   10:50   0.37   50.1    60    3.0   136     5.4   978.0    0.00 
  53   11:00   0.72   53.2    54    3.6   124     9.9   978.0    0.00 
  53   11:10   0.65   54.6    50    4.2   213     8.8   978.0    0.00 
  53   11:20   0.75   55.4    49    3.0   254    10.6   978.0    0.00 
  53   11:30   0.77   58.7    43    1.6   160     5.5   978.0    0.00 
  53   11:40   0.71   56.9    44    2.6   245     7.7   977.0    0.00 
  53   11:50   0.77   56.0    47    3.7   234    10.4   977.0    0.00 
  53   12:00   0.78   56.3    48    3.9   220    12.1   977.0    0.00 
  53   12:10   0.78   57.3    48    3.8   245    12.1   977.0    0.00 
  53   12:20   0.78   56.8    47    4.3   220    12.3   977.0    0.00 
  53   12:30   0.77   56.6    48    6.3   225    14.2   977.0    0.00 
  53   12:40   0.77   56.6    49    4.5   218    11.5   977.0    0.00 
  53   12:50   0.75   54.9    52    7.7   214    14.9   976.0    0.00 
  53   13:00   0.74   55.1    52    6.6   236    14.4   976.0    0.00 
  53   13:10   0.69   53.9    55    7.5   215    18.1   976.0    0.00 
  53   13:20   0.72   55.4    51    5.0   226    11.8   976.0    0.00 
  53   13:30   0.70   55.3    50    7.1   221    13.0   976.0    0.00 
  53   13:40   0.69   55.3    49    6.8   216    15.7   976.0    0.00 
  53   13:50   0.68   54.8    50    7.4   221    14.8   976.0    0.00 
  53   14:00   0.67   55.3    50    5.4   230    14.4   976.0    0.00 

Return to Stunt Ranch Reserve graphs page.


Western Regional Climate Center,wrcc@dri.edu